Time;durP1;ratioP1;P1;durP2;ratioP2;P2;SDS_P1;SDS_P2;PMS_P1;PMS_P2;Temp;Humidity;BMP_temperature;BMP_pressure;BME280_temperature;BME280_humidity;BME280_pressure;Samples;Min_cycle;Max_cycle;Signal;HPM_P1;HPM_P2
2022/02/23 00:01:54;;;;;;;4.10;1.10;;;;;;;-145.69;100.00;72698.00;5075526;28;20295;-75
2022/02/23 00:04:23;;;;;;;2.93;0.90;;;;;;;-145.69;100.00;72703.97;5075780;28;20203;-76
2022/02/23 00:06:49;;;;;;;5.13;1.03;;;;;;;-145.69;100.00;72709.94;5074442;28;20198;-76
2022/02/23 00:09:16;;;;;;;5.57;1.43;;;;;;;-145.69;100.00;72700.00;5075277;28;20238;-76
2022/02/23 00:11:42;;;;;;;3.40;1.00;;;;;;;-145.69;100.00;72680.09;5075346;28;20234;-76
2022/02/23 00:14:09;;;;;;;3.30;0.87;;;;;;;-145.69;100.00;72700.00;5075201;28;20280;-76
2022/02/23 00:16:35;;;;;;;2.27;0.80;;;;;;;-145.69;100.00;72672.13;5072246;28;20964;-76
2022/02/23 00:19:02;;;;;;;0.93;0.87;;;;;;;-145.69;100.00;72680.09;5055465;28;20642;-75
2022/02/23 00:21:30;;;;;;;1.23;0.83;;;;;;;-145.69;100.00;72690.03;5087786;28;20679;-75
2022/02/23 00:23:56;;;;;;;1.30;0.90;;;;;;;-145.69;100.00;72696.00;5095475;28;20210;-75
2022/02/23 00:26:23;;;;;;;3.10;1.02;;;;;;;-145.69;100.00;72682.09;5083202;28;20517;-76
2022/02/23 00:28:49;;;;;;;5.30;0.90;;;;;;;-145.69;100.00;72682.09;5074773;28;20202;-75
2022/02/23 00:31:16;;;;;;;3.53;1.10;;;;;;;-145.69;100.00;72680.09;5075097;28;20214;-76
2022/02/23 00:33:42;;;;;;;1.50;1.00;;;;;;;-145.69;100.00;72676.09;5075112;28;20581;-75
2022/02/23 00:36:09;;;;;;;2.03;0.93;;;;;;;-145.69;100.00;72684.06;5074604;28;20202;-76
2022/02/23 00:38:37;;;;;;;3.67;1.23;;;;;;;-145.69;100.00;72676.09;5075080;28;20226;-75
2022/02/23 00:41:03;;;;;;;4.60;1.10;;;;;;;-145.69;100.00;72678.09;5074613;28;20234;-76
2022/02/23 00:43:30;;;;;;;2.63;1.00;;;;;;;-145.69;100.00;72680.09;5074901;28;20212;-76
2022/02/23 00:45:56;;;;;;;1.67;0.73;;;;;;;-145.69;100.00;72668.16;5082228;28;20215;-75
2022/02/23 00:48:23;;;;;;;2.47;1.00;;;;;;;-145.69;100.00;72672.13;5095011;28;20204;-75
2022/02/23 00:50:50;;;;;;;2.83;0.70;;;;;;;-145.69;100.00;72656.22;5094786;28;20194;-75
2022/02/23 00:53:16;;;;;;;0.83;0.60;;;;;;;-145.69;100.00;72658.19;5094487;28;20626;-76
2022/02/23 00:55:44;;;;;;;3.17;1.33;;;;;;;-145.69;100.00;72656.22;5094595;28;20198;-75
2022/02/23 00:58:11;;;;;;;3.37;0.80;;;;;;;-145.69;100.00;72658.19;5094879;28;20205;-75
2022/02/23 01:00:40;;;;;;;1.83;0.80;;;;;;;-145.69;100.00;72660.19;5094780;28;20202;-75
2022/02/23 01:03:09;;;;;;;0.83;0.80;;;;;;;-145.69;100.00;72652.22;5094997;28;20288;-76
2022/02/23 01:05:36;;;;;;;2.60;0.90;;;;;;;-145.69;100.00;72652.22;5094319;28;20198;-76
2022/02/23 01:08:03;;;;;;;1.47;0.70;;;;;;;-145.69;100.00;72650.22;5094493;28;20226;-76
2022/02/23 01:10:30;;;;;;;1.17;0.70;;;;;;;-145.69;100.00;72662.19;5092393;28;20197;-75
2022/02/23 01:12:57;;;;;;;2.70;0.80;;;;;;;-145.69;100.00;72666.16;5074489;28;20211;-76
2022/02/23 01:15:24;;;;;;;1.60;0.80;;;;;;;-145.69;100.00;72678.09;5074122;28;20253;-76
2022/02/23 01:17:51;;;;;;;1.77;0.70;;;;;;;-145.69;100.00;72684.06;5074149;28;20566;-75
2022/02/23 01:20:17;;;;;;;1.80;0.80;;;;;;;-145.69;100.00;72680.09;5073881;28;20194;-76
2022/02/23 01:22:44;;;;;;;2.10;1.00;;;;;;;-145.69;100.00;72674.13;5073838;28;20925;-76
2022/02/23 01:25:11;;;;;;;2.97;0.73;;;;;;;-145.69;100.00;72678.09;5074095;28;20203;-76
2022/02/23 01:27:38;;;;;;;1.60;1.03;;;;;;;-145.69;100.00;72686.06;5073913;28;20233;-76
2022/02/23 01:30:08;;;;;;;1.87;0.90;;;;;;;-145.69;100.00;72680.09;5073295;28;20202;-75
2022/02/23 01:32:34;;;;;;;2.90;0.80;;;;;;;-145.69;100.00;72688.06;5073868;28;20558;-76
2022/02/23 01:35:04;;;;;;;4.43;1.00;;;;;;;-145.69;100.00;72676.09;5073748;28;20231;-76
2022/02/23 01:37:30;;;;;;;2.23;0.80;;;;;;;-145.69;100.00;72680.09;5087331;28;20253;-75
2022/02/23 01:39:57;;;;;;;2.27;0.70;;;;;;;-145.69;100.00;72672.13;5093724;28;20238;-76
2022/02/23 01:42:24;;;;;;;2.60;0.70;;;;;;;-145.69;100.00;72664.16;5093914;28;20572;-76
2022/02/23 01:44:50;;;;;;;1.70;0.90;;;;;;;-145.69;100.00;72664.16;5093881;28;20305;-76
2022/02/23 01:47:18;;;;;;;1.13;0.60;;;;;;;-145.69;100.00;72656.22;5093504;28;20564;-76
2022/02/23 01:49:45;;;;;;;0.67;0.67;;;;;;;-145.69;100.00;72656.22;5093679;28;20205;-75
2022/02/23 01:52:12;;;;;;;1.73;0.80;;;;;;;-145.69;100.00;72640.28;5093867;28;20214;-76
2022/02/23 01:54:38;;;;;;;3.37;0.70;;;;;;;-145.69;100.00;72636.31;5093683;28;20222;-76
2022/02/23 01:57:05;;;;;;;2.70;0.80;;;;;;;-145.69;100.00;72632.31;5093710;28;20206;-75
2022/02/23 01:59:32;;;;;;;4.30;0.80;;;;;;;-145.69;100.00;72626.34;5093677;28;20197;-76
2022/02/23 02:01:59;;;;;;;2.03;0.87;;;;;;;-145.69;100.00;72634.31;5088975;28;20199;-76
2022/02/23 02:04:26;;;;;;;1.53;0.70;;;;;;;-145.69;100.00;72632.31;5073105;28;20226;-76
2022/02/23 02:06:53;;;;;;;1.27;0.70;;;;;;;-145.69;100.00;72628.34;5073311;28;20198;-76
2022/02/23 02:09:29;;;;;;;1.17;0.63;;;;;;;-145.69;100.00;72636.31;5072831;28;20245;-75
2022/02/23 02:11:56;;;;;;;2.00;0.70;;;;;;;-145.69;100.00;72636.31;5073201;28;20222;-76
2022/02/23 02:14:25;;;;;;;0.60;0.60;;;;;;;-145.69;100.00;72648.25;5072966;28;20233;-75
2022/02/23 02:16:52;;;;;;;3.10;0.77;;;;;;;-145.69;100.00;72640.28;5072965;28;20605;-75
2022/02/23 02:19:19;;;;;;;2.90;0.80;;;;;;;-145.69;100.00;72652.22;5073272;28;20205;-76
2022/02/23 02:21:53;;;;;;;0.80;0.60;;;;;;;-145.69;100.00;72644.25;5072609;28;20688;-76
2022/02/23 02:24:22;;;;;;;1.57;0.70;;;;;;;-145.69;100.00;72652.22;5072489;28;20203;-76
2022/02/23 02:26:50;;;;;;;3.07;0.70;;;;;;;-145.69;100.00;72652.22;5091306;28;20281;-76
2022/02/23 02:29:17;;;;;;;2.37;0.70;;;;;;;-145.69;100.00;72656.22;5091067;28;20263;-75
2022/02/23 02:31:43;;;;;;;2.20;0.50;;;;;;;-145.69;100.00;72664.16;5092693;28;20200;-76
2022/02/23 02:34:10;;;;;;;2.07;0.73;;;;;;;-145.69;100.00;72674.13;5093129;28;20230;-76
2022/02/23 02:36:36;;;;;;;2.00;0.70;;;;;;;-145.69;100.00;72684.06;5093130;28;20202;-75
2022/02/23 02:39:06;;;;;;;1.87;0.60;;;;;;;-145.69;100.00;72694.03;5093031;28;20198;-76
2022/02/23 02:41:32;;;;;;;3.67;0.50;;;;;;;-145.69;100.00;72698.00;5092801;28;20664;-76
2022/02/23 02:43:59;;;;;;;3.50;0.80;;;;;;;-145.69;100.00;72703.97;5092709;28;20202;-76
2022/02/23 02:46:26;;;;;;;2.17;0.70;;;;;;;-145.69;100.00;72707.97;5093207;28;20230;-76
2022/02/23 02:48:55;;;;;;;0.83;0.70;;;;;;;-145.69;100.00;72705.97;5083559;28;20205;-76
2022/02/23 02:51:22;;;;;;;4.30;0.60;;;;;;;-145.69;100.00;72703.97;5075917;28;20194;-75
2022/02/23 02:53:50;;;;;;;0.73;0.50;;;;;;;-145.69;100.00;72715.91;5076672;28;20206;-76
2022/02/23 02:56:18;;;;;;;2.20;0.90;;;;;;;-145.69;100.00;72723.88;5076797;28;20198;-76
2022/02/23 02:58:49;;;;;;;1.30;0.70;;;;;;;-145.69;100.00;72733.84;5076082;28;20257;-76
2022/02/23 03:01:16;;;;;;;1.17;0.83;;;;;;;-145.69;100.00;72739.81;5076774;28;20194;-76
2022/02/23 03:03:43;;;;;;;2.63;0.80;;;;;;;-145.69;100.00;72751.75;5076816;28;20276;-76
2022/02/23 03:06:09;;;;;;;1.87;0.80;;;;;;;-145.69;100.00;72765.69;5076692;28;20293;-76
2022/02/23 03:08:36;;;;;;;6.37;1.27;;;;;;;-145.69;100.00;72771.66;5076133;28;20230;-75
2022/02/23 03:11:02;;;;;;;0.93;0.70;;;;;;;-145.69;100.00;72779.63;5076502;28;20198;-76
2022/02/23 03:13:30;;;;;;;5.67;0.80;;;;;;;-145.69;100.00;72787.56;5081123;28;20190;-75
2022/02/23 03:15:57;;;;;;;3.53;0.83;;;;;;;-145.69;100.00;72789.56;5096478;28;20222;-76
2022/02/23 03:18:23;;;;;;;2.13;1.53;;;;;;;-145.69;100.00;72803.50;5096636;28;20199;-75
2022/02/23 03:20:50;;;;;;;2.87;1.47;;;;;;;-145.69;100.00;72801.50;5096656;28;20198;-75
2022/02/23 03:23:17;;;;;;;2.87;1.60;;;;;;;-145.69;100.00;72809.47;5096590;28;20204;-74
2022/02/23 03:25:44;;;;;;;3.87;2.17;;;;;;;-145.69;100.00;72823.41;5096381;28;20691;-76
2022/02/23 03:28:10;;;;;;;6.17;2.20;;;;;;;-145.69;100.00;72823.41;5096554;28;20198;-75
2022/02/23 03:30:38;;;;;;;5.27;2.17;;;;;;;-145.69;100.00;72829.38;5096554;28;20576;-75
2022/02/23 03:33:05;;;;;;;4.60;2.53;;;;;;;-145.69;100.00;72837.34;5096180;28;20538;-75
2022/02/23 03:35:32;;;;;;;6.47;1.77;;;;;;;-145.69;100.00;72841.31;5096297;28;20234;-75
2022/02/23 03:37:59;;;;;;;4.53;1.80;;;;;;;-145.69;100.00;72839.34;5096199;28;20220;-75
2022/02/23 03:40:26;;;;;;;2.57;1.30;;;;;;;-145.69;100.00;72843.31;5077813;28;20199;-76
2022/02/23 03:42:53;;;;;;;2.17;1.27;;;;;;;-145.69;100.00;72851.28;5076300;28;20206;-74
2022/02/23 03:45:20;;;;;;;2.60;1.17;;;;;;;-145.69;100.00;72845.31;5075974;28;20653;-75
2022/02/23 03:47:48;;;;;;;2.00;1.07;;;;;;;-145.69;100.00;72845.31;5075776;28;20207;-75
2022/02/23 03:50:15;;;;;;;2.43;1.00;;;;;;;-145.69;100.00;72843.31;5075915;28;20202;-75
2022/02/23 03:52:44;;;;;;;2.13;1.10;;;;;;;-145.69;100.00;72849.28;5075640;28;20210;-75
2022/02/23 03:55:11;;;;;;;5.03;1.20;;;;;;;-145.69;100.00;72855.25;5075822;28;20317;-75
2022/02/23 03:57:38;;;;;;;4.90;1.30;;;;;;;-145.69;100.00;72871.19;5075570;28;20202;-75
2022/02/23 04:00:07;;;;;;;3.17;1.13;;;;;;;-145.69;100.00;72877.16;5075753;28;20615;-75
2022/02/23 04:02:34;;;;;;;5.87;1.43;;;;;;;-145.69;100.00;72881.13;5075414;28;20199;-75
2022/02/23 04:05:04;;;;;;;0.73;0.53;;;;;;;-145.69;100.00;73016.50;5084219;28;20277;-75
2022/02/23 04:07:31;;;;;;;0.73;0.50;;;;;;;-145.69;100.00;73096.13;5095365;28;20226;-74
2022/02/23 04:09:59;;;;;;;1.13;0.50;;;;;;;-145.69;100.00;73126.00;5095700;28;20206;-76
2022/02/23 04:12:26;;;;;;;3.27;0.60;;;;;;;-145.69;100.00;73155.84;5095718;28;20209;-75
2022/02/23 04:14:53;;;;;;;3.23;0.90;;;;;;;-145.69;100.00;73165.81;5095646;28;20320;-75
2022/02/23 04:17:20;;;;;;;2.37;0.87;;;;;;;-145.69;100.00;73175.75;5084813;28;20191;-75
2022/02/23 04:19:46;;;;;;;4.63;0.70;;;;;;;-145.69;100.00;73183.72;5075134;28;20252;-75
2022/02/23 04:22:14;;;;;;;4.80;0.80;;;;;;;-145.69;100.00;73189.69;5075327;28;20203;-75
2022/02/23 04:24:41;;;;;;;5.93;0.90;;;;;;;-145.69;100.00;73185.72;5074987;28;20564;-75
2022/02/23 04:27:08;;;;;;;3.77;1.10;;;;;;;-145.69;100.00;73177.75;5075191;28;20199;-75
2022/02/23 04:29:34;;;;;;;3.97;1.00;;;;;;;-145.69;100.00;73183.72;5075703;28;20672;-74
2022/02/23 04:32:01;;;;;;;3.30;1.00;;;;;;;-145.69;100.00;73193.66;5094645;28;20212;-75
2022/02/23 04:34:29;;;;;;;7.00;1.20;;;;;;;-145.69;100.00;73205.63;5095067;28;20230;-75
2022/02/23 04:36:56;;;;;;;4.00;0.90;;;;;;;-145.69;100.00;73205.63;5095364;28;20201;-75
2022/02/23 04:39:26;;;;;;;6.93;1.30;;;;;;;-145.69;100.00;73205.63;5095016;28;20841;-75
2022/02/23 04:41:53;;;;;;;2.90;1.03;;;;;;;-145.69;100.00;73219.56;5095249;28;20201;-75
2022/02/23 04:44:19;;;;;;;3.50;0.93;;;;;;;-145.69;100.00;73223.53;5094904;28;20205;-75
2022/02/23 04:46:46;;;;;;;2.93;1.20;;;;;;;-145.69;100.00;73217.56;5094910;28;20198;-75
2022/02/23 04:49:12;;;;;;;6.97;1.20;;;;;;;-145.69;100.00;73215.56;5094594;28;20209;-75
2022/02/23 04:51:39;;;;;;;6.13;0.77;;;;;;;-145.69;100.00;73215.56;5095010;28;20205;-75
2022/02/23 04:54:05;;;;;;;5.27;1.00;;;;;;;-145.69;100.00;73213.56;5094893;28;20198;-75
2022/02/23 04:56:33;;;;;;;2.47;0.90;;;;;;;-145.69;100.00;73213.56;5081546;28;20221;-75
2022/02/23 04:59:01;;;;;;;2.07;1.10;;;;;;;-145.69;100.00;73209.59;5074526;28;20207;-76
2022/02/23 05:01:27;;;;;;;3.77;0.80;;;;;;;-145.69;100.00;73211.59;5074215;28;20232;-75
2022/02/23 05:03:56;;;;;;;1.83;0.97;;;;;;;-145.69;100.00;73197.66;5074529;28;20199;-76
2022/02/23 05:06:22;;;;;;;3.70;1.30;;;;;;;-145.69;100.00;73201.63;5074312;28;20206;-75
2022/02/23 05:08:49;;;;;;;5.60;1.40;;;;;;;-145.69;100.00;73201.63;5073962;28;20241;-76
2022/02/23 05:11:17;;;;;;;4.23;2.03;;;;;;;-145.69;100.00;73201.63;5073945;28;20202;-76
2022/02/23 05:13:46;;;;;;;7.87;1.30;;;;;;;-145.69;100.00;73201.63;5073634;28;20592;-75
2022/02/23 05:16:14;;;;;;;5.00;1.37;;;;;;;-145.69;100.00;73195.66;5073994;28;20640;-76
2022/02/23 05:18:41;;;;;;;5.53;1.27;;;;;;;-145.69;100.00;73189.69;5074135;28;20298;-75
2022/02/23 05:21:07;;;;;;;9.87;1.80;;;;;;;-145.69;100.00;73201.63;5077455;28;20195;-75
2022/02/23 05:23:36;;;;;;;10.00;1.20;;;;;;;-145.69;100.00;73201.63;5094306;28;20275;-75
2022/02/23 05:26:02;;;;;;;6.33;1.30;;;;;;;-145.69;100.00;73203.63;5094113;28;20293;-75
2022/02/23 05:28:29;;;;;;;3.77;1.27;;;;;;;-145.69;100.00;73205.63;5094066;28;20206;-75
2022/02/23 05:30:57;;;;;;;3.83;1.20;;;;;;;-145.69;100.00;73217.56;5094076;28;20197;-76
2022/02/23 05:33:24;;;;;;;4.53;1.23;;;;;;;-145.69;100.00;73225.53;5094223;28;20201;-76
2022/02/23 05:35:50;;;;;;;6.17;1.03;;;;;;;-145.69;100.00;73221.53;5094087;28;20229;-75
2022/02/23 05:38:20;;;;;;;5.37;1.10;;;;;;;-145.69;100.00;73217.56;5094007;28;20201;-76
2022/02/23 05:40:46;;;;;;;6.90;1.37;;;;;;;-145.69;100.00;73219.56;5094029;28;20194;-75
2022/02/23 05:43:13;;;;;;;4.33;1.40;;;;;;;-145.69;100.00;73217.56;5093731;28;20206;-76
2022/02/23 05:45:39;;;;;;;5.63;1.37;;;;;;;-145.69;100.00;73221.53;5094064;28;20209;-75
2022/02/23 05:48:07;;;;;;;4.77;1.20;;;;;;;-145.69;100.00;73225.53;5076312;28;20198;-76
2022/02/23 05:50:34;;;;;;;5.20;1.27;;;;;;;-145.69;100.00;73227.50;5073623;28;20252;-76
2022/02/23 05:53:00;;;;;;;6.17;1.50;;;;;;;-145.69;100.00;73231.50;5073389;28;20202;-75
2022/02/23 05:55:27;;;;;;;6.87;1.30;;;;;;;-145.69;100.00;73229.50;5073338;28;20682;-76
2022/02/23 05:57:53;;;;;;;3.43;1.33;;;;;;;-145.69;100.00;73241.44;5073204;28;20198;-75
2022/02/23 06:00:20;;;;;;;7.30;1.70;;;;;;;-145.69;100.00;73241.44;5073412;28;20202;-75
2022/02/23 06:02:47;;;;;;;7.47;1.40;;;;;;;-145.69;100.00;73249.41;5073285;28;20731;-76
2022/02/23 06:05:14;;;;;;;6.37;1.43;;;;;;;-145.69;100.00;73247.41;5073401;28;20206;-76
2022/02/23 06:07:41;;;;;;;4.30;1.37;;;;;;;-145.69;100.00;73249.41;5073050;28;20222;-76
2022/02/23 06:10:08;;;;;;;2.60;1.20;;;;;;;-145.69;100.00;73243.44;5073053;28;20665;-76
2022/02/23 06:12:37;;;;;;;2.93;1.30;;;;;;;-145.69;100.00;73245.44;5082663;28;20243;-75
2022/02/23 06:15:04;;;;;;;7.50;1.50;;;;;;;-145.69;100.00;73249.41;5093286;28;20232;-76
2022/02/23 06:17:31;;;;;;;6.47;1.30;;;;;;;-145.69;100.00;73265.34;5093177;28;20236;-75
2022/02/23 06:19:58;;;;;;;3.43;1.20;;;;;;;-145.69;100.00;73261.34;5074509;28;20290;-75
2022/02/23 06:22:26;;;;;;;7.43;1.57;;;;;;;-145.69;100.00;73261.34;5073049;28;20213;-75
2022/02/23 06:24:52;;;;;;;4.23;1.50;;;;;;;-145.69;100.00;73261.34;5072103;28;20207;-76
2022/02/23 06:27:24;;;;;;;12.00;1.70;;;;;;;-145.69;100.00;73265.34;5074235;28;20198;-75
2022/02/23 06:29:51;;;;;;;4.33;1.70;;;;;;;-145.69;100.00;73257.38;5091413;28;20237;-76
2022/02/23 06:32:17;;;;;;;7.17;1.63;;;;;;;-145.69;100.00;73257.38;5092927;28;20239;-76
2022/02/23 06:34:44;;;;;;;4.67;1.43;;;;;;;-145.69;100.00;73263.34;5092826;28;20675;-75
2022/02/23 06:37:10;;;;;;;4.60;1.40;;;;;;;-145.69;100.00;73269.31;5092922;28;20197;-76
2022/02/23 06:39:40;;;;;;;6.33;1.53;;;;;;;-145.69;100.00;73273.31;5093063;28;20202;-76
2022/02/23 06:42:07;;;;;;;3.93;2.13;;;;;;;-145.69;100.00;73283.25;5092785;28;20676;-76
2022/02/23 06:44:34;;;;;;;10.13;2.23;;;;;;;-145.69;100.00;73301.19;5073193;28;20557;-75
2022/02/23 06:47:03;;;;;;;8.40;2.27;;;;;;;-145.69;100.00;73309.13;5072739;28;20719;-76
2022/02/23 06:49:30;;;;;;;8.60;1.83;;;;;;;-145.69;100.00;73303.16;5072740;28;20203;-75
2022/02/23 06:51:58;;;;;;;5.17;2.17;;;;;;;-145.69;100.00;73293.22;5075376;28;20203;-76
2022/02/23 06:54:26;;;;;;;9.93;2.47;;;;;;;-145.69;100.00;73293.22;5092699;28;20193;-74
2022/02/23 06:56:54;;;;;;;6.53;2.70;;;;;;;-145.69;100.00;73271.31;5092751;28;20704;-75
2022/02/23 06:59:21;;;;;;;8.63;3.30;;;;;;;-145.69;100.00;73259.38;5092659;28;20197;-76
2022/02/23 07:01:48;;;;;;;10.57;3.30;;;;;;;-145.69;100.00;73237.47;5092597;28;20436;-76
2022/02/23 07:04:15;;;;;;;7.90;3.20;;;;;;;-145.69;100.00;73235.47;5092628;28;20275;-76
2022/02/23 07:06:42;;;;;;;6.10;2.40;;;;;;;-145.69;100.00;73225.53;5092746;28;20209;-76
2022/02/23 07:09:10;;;;;;;11.47;2.50;;;;;;;-145.69;100.00;73229.50;5092677;28;20574;-75
2022/02/23 07:11:37;;;;;;;5.83;2.13;;;;;;;-145.69;100.00;73207.59;5092883;28;20201;-76
2022/02/23 07:14:06;;;;;;;7.37;2.30;;;;;;;-145.69;100.00;73179.75;5092624;28;20676;-75
2022/02/23 07:16:32;;;;;;;5.20;2.60;;;;;;;-145.69;100.00;73169.78;5080304;28;20582;-75
2022/02/23 07:18:59;;;;;;;9.17;2.50;;;;;;;-145.69;100.00;73169.78;5072238;28;20205;-76
2022/02/23 07:21:26;;;;;;;7.13;2.00;;;;;;;-145.69;100.00;73183.72;5072596;28;20210;-76
2022/02/23 07:23:52;;;;;;;8.57;1.90;;;;;;;-145.69;100.00;73169.78;5072556;28;20554;-76
2022/02/23 07:26:19;;;;;;;5.30;2.30;;;;;;;-145.69;100.00;73163.81;5072301;28;20672;-76
2022/02/23 07:28:45;;;;;;;8.00;2.00;;;;;;;-145.69;100.00;73157.84;5072166;28;20195;-76
2022/02/23 07:31:22;;;;;;;6.93;2.17;;;;;;;-145.69;100.00;73157.84;5072389;28;20205;-76
2022/02/23 07:33:50;;;;;;;4.70;2.10;;;;;;;-145.69;100.00;73161.81;5071735;28;20202;-75
2022/02/23 07:36:16;;;;;;;4.30;2.00;;;;;;;-145.69;100.00;73151.88;5073236;28;20234;-75
2022/02/23 07:38:45;;;;;;;5.13;2.00;;;;;;;-145.69;100.00;73157.84;5076127;28;20198;-76
2022/02/23 07:41:14;;;;;;;6.53;2.13;;;;;;;-145.69;100.00;73161.81;5079548;28;20545;-76
2022/02/23 07:43:40;;;;;;;6.33;1.47;;;;;;;-145.69;100.00;73153.84;5096023;28;20275;-76
2022/02/23 07:46:11;;;;;;;5.33;1.60;;;;;;;-145.69;100.00;73141.91;5095775;28;20202;-75
2022/02/23 07:48:41;;;;;;;5.70;1.70;;;;;;;-145.69;100.00;73118.03;5096317;28;20228;-76
2022/02/23 07:51:07;;;;;;;6.57;1.80;;;;;;;-145.69;100.00;73124.00;5096158;28;20217;-76
2022/02/23 07:53:34;;;;;;;4.87;1.87;;;;;;;-145.69;100.00;73114.03;5096225;28;20206;-76
2022/02/23 07:56:01;;;;;;;2.40;1.57;;;;;;;-145.69;100.00;73112.06;5096161;28;20237;-76
2022/02/23 07:58:27;;;;;;;4.47;1.83;;;;;;;-145.69;100.00;73098.13;5096225;28;20224;-76
2022/02/23 08:00:55;;;;;;;4.23;1.93;;;;;;;-145.69;100.00;73078.22;5096178;28;20209;-76
2022/02/23 08:03:23;;;;;;;6.77;1.80;;;;;;;-145.69;100.00;73062.28;5096125;28;20198;-76
2022/02/23 08:05:51;;;;;;;8.43;1.63;;;;;;;-145.69;100.00;73044.38;5095830;28;20696;-75
2022/02/23 08:08:19;;;;;;;7.03;1.40;;;;;;;-145.69;100.00;73054.31;5094733;28;20727;-76
2022/02/23 08:10:45;;;;;;;4.47;1.53;;;;;;;-145.69;100.00;73032.44;5095915;28;20198;-76
2022/02/23 08:13:12;;;;;;;2.30;1.30;;;;;;;-145.69;100.00;73022.47;5095382;28;20285;-76
2022/02/23 08:21:13;;;;;;;2.57;1.20;;;;;;;-145.69;100.00;72976.69;5075425;28;20774;-76
2022/02/23 08:23:43;;;;;;;4.43;1.30;;;;;;;-145.69;100.00;72954.78;5075133;28;20198;-75
2022/02/23 08:26:10;;;;;;;3.37;1.47;;;;;;;-145.69;100.00;72944.84;5082549;28;20202;-76
2022/02/23 08:28:37;;;;;;;7.30;1.70;;;;;;;-145.69;100.00;72942.84;5083640;28;20190;-76
2022/02/23 08:31:05;;;;;;;3.43;1.50;;;;;;;-145.69;100.00;72950.81;5075294;28;20203;-76
2022/02/23 08:33:31;;;;;;;5.57;1.47;;;;;;;-145.69;100.00;72928.91;5075042;28;20195;-76
2022/02/23 08:35:58;;;;;;;5.07;1.40;;;;;;;-145.69;100.00;72877.16;5075282;28;20227;-76
2022/02/23 08:38:26;;;;;;;7.33;1.43;;;;;;;-145.69;100.00;72879.16;5074958;28;20206;-76
2022/02/23 08:40:52;;;;;;;3.27;1.40;;;;;;;-145.69;100.00;72871.19;5075007;28;20210;-76
2022/02/23 08:43:19;;;;;;;7.77;1.43;;;;;;;-145.69;100.00;72839.34;5072258;28;20199;-76
2022/02/23 08:45:46;;;;;;;6.53;1.30;;;;;;;-145.69;100.00;72839.34;5074523;28;20723;-76
2022/02/23 08:48:13;;;;;;;6.63;1.20;;;;;;;-145.69;100.00;72793.56;5075203;28;20195;-77
2022/02/23 08:50:40;;;;;;;3.77;1.63;;;;;;;-145.69;100.00;72759.72;5075055;28;20304;-77
2022/02/23 08:53:07;;;;;;;4.20;0.90;;;;;;;-145.69;100.00;72775.63;5074977;28;20199;-75
2022/02/23 08:55:35;;;;;;;2.33;1.03;;;;;;;-145.69;100.00;72739.81;5074690;28;20277;-77
2022/02/23 08:58:02;;;;;;;3.63;1.03;;;;;;;-145.69;100.00;72747.78;5074654;28;20201;-76
2022/02/23 09:00:29;;;;;;;1.70;0.87;;;;;;;-145.69;100.00;72787.56;5075709;28;20224;-78
2022/02/23 09:02:55;;;;;;;3.60;0.90;;;;;;;-145.69;100.00;72785.59;5074521;28;20202;-77
2022/02/23 09:05:22;;;;;;;2.63;0.90;;;;;;;-145.69;100.00;72783.59;5074452;28;20202;-76
2022/02/23 09:07:49;;;;;;;2.93;1.10;;;;;;;-145.69;100.00;72781.59;5074309;28;20778;-75
2022/02/23 09:10:15;;;;;;;1.60;0.90;;;;;;;-145.69;100.00;72779.63;5074484;28;20202;-76
2022/02/23 09:12:44;;;;;;;2.17;1.00;;;;;;;-145.69;100.00;72809.47;5074519;28;20226;-76
2022/02/23 09:15:12;;;;;;;4.80;1.17;;;;;;;-145.69;100.00;72823.41;5080122;28;20313;-76
2022/02/23 09:17:39;;;;;;;1.63;0.83;;;;;;;-145.69;100.00;72817.44;5093945;28;20314;-76
2022/02/23 09:20:07;;;;;;;4.57;1.23;;;;;;;-145.69;100.00;72807.47;5074477;28;20195;-76
2022/02/23 09:22:33;;;;;;;2.70;1.10;;;;;;;-145.69;100.00;72835.34;5077609;28;20266;-76
2022/02/23 09:25:00;;;;;;;6.07;1.07;;;;;;;-145.69;100.00;72801.50;5077580;28;20190;-75
2022/02/23 09:27:30;;;;;;;2.20;1.13;;;;;;;-145.69;100.00;72747.78;5074079;28;20237;-76
2022/02/23 09:29:59;;;;;;;3.03;1.17;;;;;;;-145.69;100.00;72747.78;5074012;28;20201;-76
2022/02/23 09:32:26;;;;;;;6.10;1.30;;;;;;;-145.69;99.49;72721.88;5073733;28;20203;-76
2022/02/23 09:34:53;;;;;;;3.50;0.93;;;;;;;-145.69;100.00;72668.16;5074095;28;20210;-76
2022/02/23 09:37:19;;;;;;;5.10;1.50;;;;;;;-145.69;94.53;72660.19;5073846;28;20711;-76
2022/02/23 09:39:48;;;;;;;3.93;1.30;;;;;;;-145.69;92.90;72670.13;5073938;28;20256;-76
2022/02/23 09:42:15;;;;;;;5.90;1.07;;;;;;;-145.69;90.35;72680.09;5073839;28;20631;-76
2022/02/23 09:44:42;;;;;;;4.10;1.20;;;;;;;-145.69;92.80;72703.97;5073392;28;20199;-77
2022/02/23 09:47:12;;;;;;;6.27;1.30;;;;;;;-145.69;89.99;72723.88;5073560;28;20203;-75
2022/02/23 09:49:41;;;;;;;1.80;1.10;;;;;;;-145.69;94.23;72694.03;5073442;28;20210;-76
2022/02/23 09:52:08;;;;;;;3.10;1.33;;;;;;;-145.69;97.39;72711.94;5090695;28;20205;-76
2022/02/23 09:54:35;;;;;;;3.80;1.20;;;;;;;-145.69;94.48;72731.84;5093739;28;20226;-76
2022/02/23 09:57:03;;;;;;;3.77;1.27;;;;;;;-145.69;92.63;72723.88;5093491;28;20232;-76
2022/02/23 09:59:30;;;;;;;3.10;1.20;;;;;;;-145.69;96.14;72721.88;5092917;28;20202;-76
2022/02/23 10:01:59;;;;;;;1.50;1.03;;;;;;;-145.69;95.01;72698.00;5093828;28;20197;-76
2022/02/23 10:04:27;;;;;;;2.13;1.00;;;;;;;-145.69;88.70;72648.25;5093665;28;20194;-76
2022/02/23 10:07:01;;;;;;;2.73;1.17;;;;;;;-145.69;86.14;72612.41;5093443;28;20194;-76
2022/02/23 10:09:27;;;;;;;2.47;0.97;;;;;;;-145.69;85.89;72610.44;5093584;28;20229;-75
2022/02/23 10:11:54;;;;;;;3.57;1.13;;;;;;;-145.69;90.63;72632.31;5093410;28;20225;-76
2022/02/23 10:14:20;;;;;;;1.53;0.97;;;;;;;-145.69;92.18;72642.28;5089645;28;20478;-75
2022/02/23 10:16:48;;;;;;;1.23;0.97;;;;;;;-145.69;94.15;72632.31;5073389;28;20234;-76
2022/02/23 10:19:17;;;;;;;4.97;1.10;;;;;;;-145.69;91.88;72628.34;5073483;28;20233;-76
2022/02/23 10:21:50;;;;;;;2.70;1.00;;;;;;;-145.69;95.73;72672.13;5072874;28;20198;-76
2022/02/23 10:24:29;;;;;;;3.63;1.47;;;;;;;-145.69;100.00;72723.88;5072639;28;20198;-76
2022/02/23 10:27:07;;;;;;;1.83;1.10;;;;;;;-145.69;100.00;72715.91;5073368;28;20240;-76
2022/02/23 10:29:36;;;;;;;5.00;1.53;;;;;;;-145.69;100.00;72739.81;5073101;28;20234;-76
2022/02/23 10:32:08;;;;;;;5.10;1.60;;;;;;;-145.69;100.00;72753.75;5073355;28;20210;-76
2022/02/23 10:34:38;;;;;;;2.57;1.10;;;;;;;-145.69;100.00;72755.72;5073406;28;20228;-78
2022/02/23 10:37:07;;;;;;;3.37;1.10;;;;;;;-145.69;100.00;72755.72;5072763;28;20702;-76
2022/02/23 10:39:40;;;;;;;2.00;1.27;;;;;;;-145.69;100.00;72739.81;5072696;28;20654;-75
2022/02/23 10:42:08;;;;;;;3.93;1.40;;;;;;;-145.69;100.00;72751.75;5073209;28;20274;-76
2022/02/23 10:44:35;;;;;;;7.03;1.60;;;;;;;-145.69;100.00;72725.88;5073067;28;20199;-76
2022/02/23 10:47:02;;;;;;;2.67;1.30;;;;;;;-145.69;100.00;72705.97;5072920;28;20213;-76
2022/02/23 10:49:28;;;;;;;2.33;1.13;;;;;;;-145.69;100.00;72684.06;5072856;28;20213;-76
2022/02/23 10:52:06;;;;;;;6.53;1.50;;;;;;;-145.69;99.97;72644.25;5072818;28;20658;-75
2022/02/23 10:54:35;;;;;;;4.87;1.10;;;;;;;-145.69;97.49;72616.41;5073090;28;20245;-75
2022/02/23 10:57:03;;;;;;;3.20;1.33;;;;;;;-145.69;95.46;72584.56;5072962;28;20780;-75
2022/02/23 10:59:30;;;;;;;3.43;1.20;;;;;;;-145.69;95.86;72600.47;5073080;28;20561;-75
2022/02/23 11:01:56;;;;;;;2.27;1.10;;;;;;;-145.69;95.47;72606.44;5072805;28;20210;-76
2022/02/23 11:04:23;;;;;;;5.50;1.03;;;;;;;-145.69;100.00;72614.41;5081345;28;20198;-75
2022/02/23 11:06:51;;;;;;;2.40;0.90;;;;;;;-145.69;100.00;72612.41;5092897;28;20332;-75
2022/02/23 11:09:18;;;;;;;2.87;0.90;;;;;;;-145.69;97.25;72586.53;5092730;28;20298;-75
2022/02/23 11:11:48;;;;;;;1.00;0.80;;;;;;;-145.69;94.11;72556.69;5094944;28;20194;-75
2022/02/23 11:14:18;;;;;;;2.57;0.90;;;;;;;-145.69;90.40;72506.91;5096375;28;20198;-76
2022/02/23 11:16:45;;;;;;;3.87;0.80;;;;;;;-145.69;84.70;72473.09;5096699;28;20222;-76